createdAt,value
2018-03-30T00:01:55.004Z,100081
2018-03-30T00:04:23.217Z,100078
2018-03-30T00:06:52.151Z,100079
2018-03-30T00:09:38.042Z,100086
2018-03-30T00:12:06.256Z,100093
2018-03-30T00:14:35.263Z,100087
2018-03-30T00:17:04.348Z,100096
2018-03-30T00:19:33.335Z,100092
2018-03-30T00:22:02.311Z,100093
2018-03-30T00:24:30.510Z,100082
2018-03-30T00:26:59.460Z,100070
2018-03-30T00:29:27.719Z,100085
2018-03-30T00:31:55.952Z,100084
2018-03-30T00:34:24.920Z,100083
2018-03-30T00:36:53.899Z,100069
2018-03-30T00:39:22.149Z,100078
2018-03-30T00:41:50.334Z,100086
2018-03-30T00:44:18.536Z,100075
2018-03-30T00:46:46.752Z,100073
2018-03-30T00:49:14.967Z,100074
2018-03-30T00:51:43.168Z,100070
2018-03-30T00:54:12.130Z,100082
2018-03-30T00:56:40.342Z,100078
2018-03-30T00:59:09.302Z,100084
2018-03-30T01:01:37.509Z,100098
2018-03-30T01:04:06.467Z,100095
2018-03-30T01:06:34.691Z,100103
2018-03-30T01:09:02.868Z,100105
2018-03-30T01:11:31.082Z,100100
2018-03-30T01:13:59.289Z,100093
2018-03-30T01:16:28.263Z,100104
2018-03-30T01:18:56.462Z,100096
2018-03-30T01:21:25.411Z,100090
2018-03-30T01:23:53.639Z,100089
2018-03-30T01:26:21.863Z,100089
2018-03-30T01:28:50.422Z,100095
2018-03-30T01:31:18.634Z,100091
2018-03-30T01:33:46.853Z,100097
2018-03-30T01:36:15.066Z,100101
2018-03-30T01:38:43.296Z,100098
2018-03-30T01:41:11.475Z,100109
2018-03-30T01:43:40.443Z,100101
2018-03-30T01:46:09.403Z,100106
2018-03-30T01:48:37.628Z,100101
2018-03-30T01:51:05.851Z,100099
2018-03-30T01:53:34.079Z,100102
2018-03-30T01:56:02.307Z,100105
2018-03-30T01:58:30.541Z,100090
2018-03-30T02:00:58.760Z,100109
2018-03-30T02:03:26.972Z,100109
2018-03-30T02:05:55.155Z,100107
2018-03-30T02:08:23.366Z,100102
2018-03-30T02:10:51.610Z,100107
2018-03-30T02:13:19.801Z,100111
2018-03-30T02:15:47.954Z,100116
2018-03-30T02:18:16.135Z,100105
2018-03-30T02:20:44.354Z,100099
2018-03-30T02:23:13.337Z,100100
2018-03-30T02:25:41.558Z,100090
2018-03-30T02:28:09.793Z,100086
2018-03-30T02:30:37.979Z,100089
2018-03-30T02:33:06.947Z,100091
2018-03-30T02:35:35.132Z,100095
2018-03-30T02:38:03.400Z,100099
2018-03-30T02:40:32.345Z,100099
2018-03-30T02:43:00.569Z,100105
2018-03-30T02:45:29.568Z,100096
2018-03-30T02:47:57.852Z,100089
2018-03-30T02:50:26.076Z,100091
2018-03-30T02:52:54.362Z,100084
2018-03-30T02:55:22.665Z,100079
2018-03-30T02:57:51.676Z,100076
2018-03-30T03:00:20.734Z,100082
2018-03-30T03:02:49.079Z,100080
2018-03-30T03:05:17.359Z,100085
2018-03-30T03:07:45.647Z,100070
2018-03-30T03:10:13.938Z,100079
2018-03-30T03:12:42.393Z,100086
2018-03-30T03:15:11.510Z,100084
2018-03-30T03:17:39.828Z,100093
2018-03-30T03:20:08.042Z,100091
2018-03-30T03:22:36.302Z,100095
2018-03-30T03:25:04.492Z,100084
2018-03-30T03:27:32.706Z,100088
2018-03-30T03:30:01.648Z,100078
2018-03-30T03:32:29.926Z,100069
2018-03-30T03:34:58.103Z,100083
2018-03-30T03:37:26.324Z,100096
2018-03-30T03:39:55.312Z,100097
2018-03-30T03:42:23.576Z,100088
2018-03-30T03:44:51.770Z,100084
2018-03-30T03:47:20.867Z,100068
2018-03-30T03:49:49.854Z,100075
2018-03-30T03:52:18.135Z,100068
2018-03-30T03:54:46.367Z,100077
2018-03-30T03:57:14.657Z,100078
2018-03-30T03:59:42.862Z,100082
2018-03-30T04:02:11.186Z,100077
2018-03-30T04:04:39.378Z,100067
2018-03-30T04:07:07.587Z,100073
2018-03-30T04:09:35.837Z,100074
2018-03-30T04:12:04.818Z,100074
2018-03-30T04:14:33.010Z,100068
2018-03-30T04:17:02.061Z,100067
2018-03-30T04:19:30.254Z,100069
2018-03-30T04:21:58.543Z,100077
2018-03-30T04:24:26.755Z,100078
2018-03-30T04:26:54.978Z,100073
2018-03-30T04:29:23.195Z,100070
2018-03-30T04:31:51.420Z,100076
2018-03-30T04:34:19.643Z,100069
2018-03-30T04:36:48.101Z,100073
2018-03-30T04:39:17.071Z,100078
2018-03-30T04:41:46.072Z,100074
2018-03-30T04:44:14.282Z,100068
2018-03-30T04:46:42.647Z,100059
2018-03-30T04:49:10.845Z,100060
2018-03-30T04:51:39.113Z,100059
2018-03-30T04:54:07.346Z,100051
2018-03-30T04:56:35.561Z,100052
2018-03-30T04:59:03.783Z,100060
2018-03-30T05:01:32.062Z,100059
2018-03-30T05:04:00.312Z,100064
2018-03-30T05:06:28.516Z,100056
2018-03-30T05:08:56.736Z,100059
2018-03-30T05:11:25.035Z,100064
2018-03-30T05:13:53.276Z,100066
2018-03-30T05:16:21.508Z,100076
2018-03-30T05:18:50.694Z,100077
2018-03-30T05:21:18.888Z,100077
2018-03-30T05:23:47.123Z,100084
2018-03-30T05:26:15.338Z,100079
2018-03-30T05:28:43.595Z,100086
2018-03-30T05:31:11.755Z,100086
2018-03-30T05:33:39.985Z,100087
2018-03-30T05:36:08.290Z,100086
2018-03-30T05:38:36.513Z,100093
2018-03-30T05:41:05.505Z,100098
2018-03-30T05:43:34.492Z,100097
2018-03-30T05:46:02.778Z,100097
2018-03-30T05:48:31.757Z,100091
2018-03-30T05:51:00.027Z,100094
2018-03-30T05:53:28.230Z,100094
2018-03-30T05:55:56.507Z,100098
2018-03-30T05:58:24.760Z,100094
2018-03-30T06:00:52.949Z,100094
2018-03-30T06:03:21.927Z,100086
2018-03-30T06:05:50.120Z,100093
2018-03-30T06:08:18.332Z,100089
2018-03-30T06:10:46.579Z,100090
2018-03-30T06:13:14.802Z,100088
2018-03-30T06:15:43.015Z,100093
2018-03-30T06:18:11.328Z,100102
2018-03-30T06:20:39.550Z,100096
2018-03-30T06:23:08.541Z,100095
2018-03-30T06:25:37.551Z,100095
2018-03-30T06:28:05.810Z,100091
2018-03-30T06:30:34.001Z,100087
2018-03-30T06:33:02.166Z,100084
2018-03-30T06:35:31.146Z,100089
2018-03-30T06:38:00.107Z,100086
2018-03-30T06:40:28.377Z,100091
2018-03-30T06:42:56.530Z,100085
2018-03-30T06:45:24.770Z,100088
2018-03-30T06:47:53.720Z,100088
2018-03-30T06:50:21.925Z,100091
2018-03-30T06:52:50.911Z,100096
2018-03-30T06:55:19.105Z,100085
2018-03-30T06:57:48.099Z,100098
2018-03-30T07:00:17.205Z,100100
2018-03-30T07:02:45.468Z,100097
2018-03-30T07:05:14.581Z,100099
2018-03-30T07:07:42.799Z,100095
2018-03-30T07:10:11.021Z,100098
2018-03-30T07:12:39.232Z,100093
2018-03-30T07:15:07.462Z,100107
2018-03-30T07:17:35.659Z,100109
2018-03-30T07:20:03.861Z,100111
2018-03-30T07:22:32.131Z,100106
2018-03-30T07:25:00.283Z,100114
2018-03-30T07:27:28.511Z,100106
2018-03-30T07:29:56.707Z,100112
2018-03-30T07:32:24.976Z,100112
2018-03-30T07:34:53.950Z,100120
2018-03-30T07:37:22.927Z,100119
2018-03-30T07:39:51.135Z,100119
2018-03-30T07:42:19.365Z,100117
2018-03-30T07:44:47.614Z,100114
2018-03-30T07:47:15.825Z,100111
2018-03-30T07:49:44.673Z,100114
2018-03-30T07:52:12.882Z,100114
2018-03-30T07:54:41.127Z,100108
2018-03-30T07:57:09.360Z,100111
2018-03-30T07:59:38.319Z,100099
2018-03-30T08:02:06.579Z,100105
2018-03-30T08:04:34.807Z,100106
2018-03-30T08:07:03.762Z,100097
2018-03-30T08:09:31.937Z,100101
2018-03-30T08:12:00.154Z,100098
2018-03-30T08:14:28.381Z,100094
2018-03-30T08:16:56.568Z,100104
2018-03-30T08:19:24.779Z,100103
2018-03-30T08:21:53.035Z,100095
2018-03-30T08:24:21.363Z,100099
2018-03-30T08:26:49.615Z,100097
2018-03-30T08:29:17.862Z,100093
2018-03-30T08:31:46.828Z,100090
2018-03-30T08:34:15.023Z,100083
2018-03-30T08:36:43.997Z,100083
2018-03-30T08:39:12.213Z,100082
2018-03-30T08:41:40.436Z,100090
2018-03-30T08:44:08.631Z,100082
2018-03-30T08:46:36.896Z,100078
2018-03-30T08:49:05.110Z,100082
2018-03-30T08:51:33.298Z,100078
2018-03-30T08:54:01.555Z,100095
2018-03-30T08:56:29.738Z,100092
2018-03-30T08:58:57.981Z,100101
2018-03-30T09:01:26.972Z,100110
2018-03-30T09:03:55.944Z,100106
2018-03-30T09:06:24.123Z,100101
2018-03-30T09:08:52.321Z,100106
2018-03-30T09:11:21.270Z,100103
2018-03-30T09:13:49.489Z,100104
2018-03-30T09:16:18.443Z,100090
2018-03-30T09:18:46.662Z,100093
2018-03-30T09:21:14.834Z,100087
2018-03-30T09:23:43.050Z,100100
2018-03-30T09:26:11.314Z,100095
2018-03-30T09:28:39.634Z,100088
2018-03-30T09:31:08.741Z,100097
2018-03-30T09:33:37.747Z,100085
2018-03-30T09:36:05.971Z,100088
2018-03-30T09:38:34.173Z,100083
2018-03-30T09:41:03.169Z,100074
2018-03-30T09:43:32.157Z,100076
2018-03-30T09:46:01.116Z,100075
2018-03-30T09:48:29.331Z,100063
2018-03-30T09:50:58.294Z,100073
2018-03-30T09:53:26.499Z,100067
2018-03-30T09:55:55.491Z,100070
2018-03-30T09:58:24.466Z,100074
2018-03-30T10:00:52.728Z,100066
2018-03-30T10:03:20.994Z,100066
2018-03-30T10:05:49.213Z,100069
2018-03-30T10:08:17.417Z,100066
2018-03-30T10:10:45.623Z,100069
2018-03-30T10:13:14.008Z,100065
2018-03-30T10:15:42.251Z,100061
2018-03-30T10:18:10.493Z,100059
2018-03-30T10:20:39.435Z,100054
2018-03-30T10:23:07.763Z,100047
2018-03-30T10:25:35.994Z,100047
2018-03-30T10:28:04.316Z,100040
2018-03-30T10:30:32.548Z,100042
2018-03-30T10:33:00.764Z,100047
2018-03-30T10:35:28.984Z,100046
2018-03-30T10:37:57.206Z,100037
2018-03-30T10:40:25.419Z,100034
2018-03-30T10:42:53.691Z,100039
2018-03-30T10:45:22.023Z,100033
2018-03-30T10:47:50.207Z,100029
2018-03-30T10:50:18.480Z,100030
2018-03-30T10:52:46.696Z,100031
2018-03-30T10:55:14.905Z,100021
2018-03-30T10:57:43.869Z,100017
2018-03-30T11:00:12.080Z,100015
2018-03-30T11:02:40.281Z,100017
2018-03-30T11:05:08.617Z,100010
2018-03-30T11:07:37.452Z,100007
2018-03-30T11:10:05.656Z,100013
2018-03-30T11:12:33.880Z,100014
2018-03-30T11:15:02.104Z,100018
2018-03-30T11:17:30.304Z,100014
2018-03-30T11:19:58.543Z,100021
2018-03-30T11:22:26.744Z,100013
2018-03-30T11:24:54.950Z,100012
2018-03-30T11:27:23.179Z,100000
2018-03-30T11:29:51.391Z,99995
2018-03-30T11:32:19.647Z,99999
2018-03-30T11:34:49.163Z,99987
2018-03-30T11:39:58.510Z,99970
2018-03-30T11:42:26.711Z,99971
2018-03-30T11:44:54.892Z,99962
2018-03-30T11:47:23.104Z,99964
2018-03-30T11:49:51.295Z,99917
2018-03-30T11:52:20.284Z,99950
2018-03-30T11:54:48.505Z,99947
2018-03-30T11:57:16.727Z,99949
2018-03-30T11:59:44.935Z,99942
2018-03-30T12:02:13.891Z,99929
2018-03-30T12:04:42.097Z,99920
2018-03-30T12:07:10.333Z,99932
2018-03-30T12:09:39.372Z,99928
2018-03-30T12:12:07.634Z,99927
2018-03-30T12:14:35.887Z,99913
2018-03-30T12:17:04.113Z,99913
2018-03-30T12:19:32.325Z,99914
2018-03-30T12:22:00.687Z,99899
2018-03-30T12:24:28.982Z,99901
2018-03-30T12:26:57.240Z,99896
2018-03-30T12:29:25.461Z,99886
2018-03-30T12:31:54.383Z,99892
2018-03-30T12:34:22.702Z,99895
2018-03-30T12:36:50.897Z,99883
2018-03-30T12:39:19.988Z,99883
2018-03-30T12:41:48.957Z,99870
2018-03-30T12:44:17.129Z,99867
2018-03-30T12:46:45.352Z,99866
2018-03-30T12:49:14.630Z,99861
2018-03-30T12:51:43.579Z,99863
2018-03-30T12:54:11.756Z,99860
2018-03-30T12:56:39.932Z,99850
2018-03-30T12:59:08.132Z,99851
2018-03-30T13:01:37.083Z,99845
2018-03-30T13:04:06.190Z,99849
2018-03-30T13:06:34.390Z,99837
2018-03-30T13:09:03.356Z,99828
2018-03-30T13:11:50.824Z,99819
2018-03-30T13:14:19.089Z,99820
2018-03-30T13:16:47.255Z,99808
2018-03-30T13:19:16.219Z,99817
2018-03-30T13:21:44.423Z,99812
2018-03-30T13:24:13.399Z,99812
2018-03-30T13:26:42.342Z,99806
2018-03-30T13:29:10.518Z,99804
2018-03-30T13:31:38.808Z,99800
2018-03-30T13:34:07.010Z,99794
2018-03-30T13:36:35.206Z,99796
2018-03-30T13:39:05.077Z,99792
2018-03-30T13:41:34.718Z,99792
2018-03-30T13:44:03.721Z,99779
2018-03-30T13:46:32.671Z,99776
2018-03-30T13:49:00.923Z,99771
2018-03-30T13:51:51.386Z,99775
2018-03-30T13:54:22.073Z,99776
2018-03-30T13:56:50.239Z,99778
2018-03-30T13:59:20.303Z,99768
2018-03-30T14:05:38.707Z,99761
2018-03-30T14:08:37.515Z,99755
2018-03-30T14:23:25.447Z,99720
2018-03-30T14:25:55.521Z,99726
2018-03-30T14:28:28.095Z,99716
2018-03-30T14:30:59.070Z,99712
2018-03-30T14:33:30.124Z,99711
2018-03-30T14:36:06.696Z,99707
2018-03-30T14:38:43.206Z,99698
2018-03-30T14:41:11.422Z,99713
2018-03-30T14:43:46.089Z,99704
2018-03-30T14:46:39.631Z,99701
2018-03-30T14:49:10.628Z,99686
2018-03-30T14:52:08.988Z,99695
2018-03-30T14:54:38.771Z,99687
2018-03-30T14:57:20.377Z,99688
2018-03-30T14:59:51.401Z,99692
2018-03-30T15:02:47.370Z,99699
2018-03-30T15:08:32.307Z,99708
2018-03-30T15:11:14.813Z,99717
2018-03-30T15:16:51.617Z,99715
2018-03-30T15:19:35.638Z,99710
2018-03-30T15:22:21.240Z,99719
2018-03-30T15:24:56.823Z,99713
2018-03-30T15:27:28.585Z,99712
2018-03-30T15:30:12.377Z,99708
2018-03-30T15:35:53.155Z,99699
2018-03-30T15:38:21.421Z,99711
2018-03-30T15:40:49.614Z,99703
2018-03-30T15:43:29.988Z,99703
2018-03-30T15:49:07.082Z,99705
2018-03-30T15:51:38.478Z,99701
2018-03-30T15:54:05.987Z,99694
2018-03-30T15:56:36.471Z,99699
2018-03-30T15:59:04.671Z,99700
2018-03-30T16:01:32.856Z,99700
2018-03-30T16:04:01.833Z,99693
2018-03-30T16:06:30.045Z,99694
2018-03-30T16:08:58.306Z,99691
2018-03-30T16:11:38.058Z,99691
2018-03-30T16:14:06.274Z,99691
2018-03-30T16:16:34.430Z,99685
2018-03-30T16:19:01.866Z,99679
2018-03-30T16:21:29.304Z,99693
2018-03-30T16:23:57.538Z,99684
2018-03-30T16:26:24.937Z,99671
2018-03-30T16:28:52.467Z,99680
2018-03-30T16:31:19.883Z,99674
2018-03-30T16:33:47.349Z,99673
2018-03-30T16:36:14.819Z,99683
2018-03-30T16:38:42.327Z,99690
2018-03-30T16:41:09.716Z,99689
2018-03-30T16:43:37.348Z,99681
2018-03-30T16:46:04.797Z,99675
2018-03-30T16:48:39.410Z,99671
2018-03-30T16:54:18.715Z,99659
2018-03-30T16:56:46.284Z,99665
2018-03-30T16:59:13.948Z,99667
2018-03-30T17:01:41.495Z,99671
2018-03-30T17:04:09.804Z,99666
2018-03-30T17:06:37.251Z,99673
2018-03-30T17:09:04.690Z,99675
2018-03-30T17:11:32.196Z,99677
2018-03-30T17:13:59.640Z,99675
2018-03-30T17:16:27.828Z,99680
2018-03-30T17:18:55.307Z,99679
2018-03-30T17:21:22.792Z,99684
2018-03-30T17:23:50.222Z,99691
2018-03-30T17:26:17.656Z,99695
2018-03-30T17:28:45.113Z,99690
2018-03-30T17:31:12.578Z,99679
2018-03-30T17:33:40.036Z,99679
2018-03-30T17:36:07.471Z,99687
2018-03-30T17:38:34.917Z,99688
2018-03-30T17:41:03.182Z,99682
2018-03-30T17:43:30.677Z,99686
2018-03-30T17:45:58.107Z,99684
2018-03-30T17:48:25.597Z,99692
2018-03-30T17:50:53.031Z,99682
2018-03-30T17:53:20.591Z,99681
2018-03-30T17:55:48.031Z,99670
2018-03-30T17:58:16.306Z,99677
2018-03-30T18:00:43.796Z,99672
2018-03-30T18:03:11.270Z,99674
2018-03-30T18:05:38.746Z,99669
2018-03-30T18:08:06.158Z,99671
2018-03-30T18:10:33.671Z,99673
2018-03-30T18:13:01.092Z,99679
2018-03-30T18:15:28.543Z,99685
2018-03-30T18:17:56.046Z,99678
2018-03-30T18:20:23.877Z,99680
2018-03-30T18:22:51.626Z,99685
2018-03-30T18:25:19.083Z,99691
2018-03-30T18:27:46.527Z,99687
2018-03-30T18:30:14.334Z,99693
2018-03-30T18:32:45.396Z,99692
2018-03-30T18:35:13.786Z,99692
2018-03-30T18:37:41.319Z,99693
2018-03-30T18:40:08.763Z,99689
2018-03-30T18:42:36.279Z,99688
2018-03-30T18:45:03.828Z,99685
2018-03-30T18:47:31.288Z,99688
2018-03-30T18:49:59.031Z,99682
2018-03-30T18:52:27.286Z,99691
2018-03-30T18:54:54.736Z,99691
2018-03-30T18:57:22.277Z,99687
2018-03-30T18:59:49.747Z,99699
2018-03-30T19:02:17.341Z,99688
2018-03-30T19:04:44.804Z,99690
2018-03-30T19:07:12.333Z,99697
2018-03-30T19:09:39.906Z,99686
2018-03-30T19:12:07.354Z,99691
2018-03-30T19:14:34.893Z,99694
2018-03-30T19:17:02.366Z,99694
2018-03-30T19:19:30.604Z,99697
2018-03-30T19:21:58.109Z,99688
2018-03-30T19:24:26.348Z,99686
2018-03-30T19:26:53.903Z,99688
2018-03-30T19:29:21.393Z,99683
2018-03-30T19:31:49.632Z,99702
2018-03-30T19:34:17.361Z,99680
2018-03-30T19:36:44.844Z,99682
2018-03-30T19:39:12.315Z,99687
2018-03-30T19:41:39.831Z,99685
2018-03-30T19:44:07.297Z,99692
2018-03-30T19:46:34.870Z,99686
2018-03-30T19:49:02.306Z,99679
2018-03-30T19:51:29.805Z,99681
2018-03-30T19:53:57.390Z,99684
2018-03-30T19:56:24.885Z,99681
2018-03-30T19:58:52.613Z,99677
2018-03-30T20:01:20.860Z,99671
2018-03-30T20:03:48.301Z,99672
2018-03-30T20:06:15.834Z,99673
2018-03-30T20:08:43.359Z,99668
2018-03-30T20:11:11.625Z,99674
2018-03-30T20:13:39.869Z,99669
2018-03-30T20:16:07.332Z,99673
2018-03-30T20:18:35.190Z,99675
2018-03-30T20:21:02.698Z,99680
2018-03-30T20:23:30.930Z,99675
2018-03-30T20:25:58.417Z,99676
2018-03-30T20:28:25.861Z,99680
2018-03-30T20:30:53.323Z,99676
2018-03-30T20:33:20.797Z,99673
2018-03-30T20:35:49.077Z,99675
2018-03-30T20:38:17.174Z,99682
2018-03-30T20:40:44.653Z,99676
2018-03-30T20:43:12.106Z,99671
2018-03-30T20:45:39.574Z,99677
2018-03-30T20:48:07.016Z,99679
2018-03-30T20:50:34.489Z,99665
2018-03-30T20:53:01.983Z,99661
2018-03-30T20:55:29.397Z,99669
2018-03-30T20:57:56.857Z,99662
2018-03-30T21:00:24.298Z,99657
2018-03-30T21:02:51.718Z,99655
2018-03-30T21:05:19.195Z,99658
2018-03-30T21:07:46.672Z,99660
2018-03-30T21:10:14.156Z,99655
2018-03-30T21:12:41.675Z,99656
2018-03-30T21:15:09.129Z,99660
2018-03-30T21:17:36.641Z,99650
2018-03-30T21:20:04.852Z,99651
2018-03-30T21:22:32.296Z,99658
2018-03-30T21:24:59.767Z,99664
2018-03-30T21:27:27.203Z,99643
2018-03-30T21:29:54.715Z,99647
2018-03-30T21:32:22.167Z,99650
2018-03-30T21:34:49.606Z,99643
2018-03-30T21:37:17.073Z,99645
2018-03-30T21:39:44.491Z,99648
2018-03-30T21:42:11.914Z,99635
2018-03-30T21:44:40.100Z,99639
2018-03-30T21:47:08.300Z,99640
2018-03-30T21:49:35.859Z,99639
2018-03-30T21:52:03.307Z,99639
2018-03-30T21:54:30.765Z,99621
2018-03-30T21:56:58.197Z,99616
2018-03-30T21:59:26.393Z,99622
2018-03-30T22:01:53.848Z,99624
2018-03-30T22:04:21.290Z,99624
2018-03-30T22:06:48.753Z,99623
2018-03-30T22:09:16.197Z,99627
2018-03-30T22:11:43.648Z,99627
2018-03-30T22:14:11.830Z,99621
2018-03-30T22:16:40.047Z,99624
2018-03-30T22:19:08.306Z,99625
2018-03-30T22:21:35.761Z,99620
2018-03-30T22:24:03.213Z,99619
2018-03-30T22:26:30.687Z,99615
2018-03-30T22:28:58.104Z,99605
2018-03-30T22:31:26.424Z,99614
2018-03-30T22:33:53.860Z,99600
2018-03-30T22:36:21.336Z,99600
2018-03-30T22:38:48.770Z,99604
2018-03-30T22:41:16.369Z,99591
2018-03-30T22:43:43.850Z,99592
2018-03-30T22:46:11.239Z,99585
2018-03-30T22:48:38.667Z,99588
2018-03-30T22:51:06.123Z,99582
2018-03-30T22:53:34.362Z,99577
2018-03-30T22:56:01.866Z,99579
2018-03-30T22:58:29.304Z,99581
2018-03-30T23:00:56.747Z,99571
2018-03-30T23:03:24.979Z,99577
2018-03-30T23:05:52.437Z,99567
2018-03-30T23:08:19.857Z,99571
2018-03-30T23:10:47.317Z,99573
2018-03-30T23:13:14.750Z,99566
2018-03-30T23:15:42.972Z,99575
2018-03-30T23:18:11.189Z,99570
2018-03-30T23:20:38.620Z,99553
2018-03-30T23:23:06.062Z,99568
2018-03-30T23:25:33.506Z,99557
2018-03-30T23:28:00.950Z,99562
2018-03-30T23:30:28.531Z,99549
2018-03-30T23:32:55.949Z,99546
2018-03-30T23:35:23.479Z,99551
2018-03-30T23:37:51.218Z,99557
2018-03-30T23:40:18.633Z,99547
2018-03-30T23:42:46.066Z,99549
2018-03-30T23:45:14.303Z,99545
2018-03-30T23:47:41.769Z,99544
2018-03-30T23:50:09.201Z,99531
2018-03-30T23:52:36.694Z,99545
2018-03-30T23:55:04.140Z,99530
2018-03-30T23:57:31.594Z,99533
2018-03-30T23:59:59.034Z,99539
